createdAt,value
2017-12-12T00:02:04.255Z,6.90
2017-12-12T00:04:31.810Z,6.91
2017-12-12T00:06:59.312Z,6.90
2017-12-12T00:09:26.825Z,6.94
2017-12-12T00:11:54.350Z,6.94
2017-12-12T00:14:21.862Z,6.94
2017-12-12T00:16:49.377Z,6.97
2017-12-12T00:19:16.885Z,6.95
2017-12-12T00:21:44.441Z,6.97
2017-12-12T00:24:11.945Z,6.98
2017-12-12T00:26:39.531Z,6.99
2017-12-12T00:29:07.166Z,7.00
2017-12-12T00:31:34.729Z,7.01
2017-12-12T00:34:02.233Z,6.99
2017-12-12T00:36:29.734Z,7.02
2017-12-12T00:38:57.264Z,7.02
2017-12-12T00:41:24.770Z,7.02
2017-12-12T00:43:52.282Z,7.03
2017-12-12T00:46:19.786Z,7.01
2017-12-12T00:48:47.294Z,7.02
2017-12-12T00:51:14.809Z,7.04
2017-12-12T00:53:42.325Z,7.04
2017-12-12T00:56:09.823Z,7.07
2017-12-12T00:58:37.374Z,7.08
2017-12-12T01:01:05.082Z,7.10
2017-12-12T01:06:06.313Z,7.09
2017-12-12T01:08:33.817Z,7.10
2017-12-12T01:11:01.320Z,7.10
2017-12-12T01:13:28.857Z,7.14
2017-12-12T01:15:56.434Z,7.15
2017-12-12T01:18:23.951Z,7.13
2017-12-12T01:20:51.463Z,7.17
2017-12-12T01:23:18.981Z,7.18
2017-12-12T01:25:46.506Z,7.19
2017-12-12T01:28:14.026Z,7.25
2017-12-12T01:30:41.536Z,7.26
2017-12-12T01:33:09.049Z,7.27
2017-12-12T01:35:36.545Z,7.26
2017-12-12T01:38:04.063Z,7.21
2017-12-12T01:40:31.576Z,7.17
2017-12-12T01:42:59.102Z,7.22
2017-12-12T01:45:26.609Z,7.18
2017-12-12T01:47:54.104Z,7.16
2017-12-12T01:50:21.621Z,7.18
2017-12-12T01:52:49.142Z,7.17
2017-12-12T01:55:16.641Z,7.19
2017-12-12T01:57:44.150Z,7.20
2017-12-12T02:00:11.717Z,7.22
2017-12-12T02:02:39.298Z,7.23
2017-12-12T02:05:07.640Z,7.23
2017-12-12T02:07:35.312Z,7.21
2017-12-12T02:10:02.860Z,7.24
2017-12-12T02:12:30.605Z,7.21
2017-12-12T02:14:58.243Z,7.24
2017-12-12T02:17:25.754Z,7.21
2017-12-12T02:19:53.266Z,7.19
2017-12-12T02:22:20.772Z,7.18
2017-12-12T02:24:48.288Z,7.17
2017-12-12T02:27:15.815Z,7.20
2017-12-12T02:29:43.317Z,7.20
2017-12-12T02:32:10.818Z,7.22
2017-12-12T02:34:38.326Z,7.25
2017-12-12T02:37:05.903Z,7.23
2017-12-12T02:39:33.501Z,7.21
2017-12-12T02:42:01.485Z,7.22
2017-12-12T02:44:29.010Z,7.23
2017-12-12T02:46:56.516Z,7.23
2017-12-12T02:49:24.060Z,7.24
2017-12-12T02:51:51.622Z,7.25
2017-12-12T02:54:19.277Z,7.28
2017-12-12T02:56:47.575Z,7.25
2017-12-12T02:59:15.139Z,7.26
2017-12-12T03:01:42.719Z,7.22
2017-12-12T03:04:10.311Z,7.28
2017-12-12T03:06:37.814Z,7.27
2017-12-12T03:09:05.306Z,7.26
2017-12-12T03:11:32.800Z,7.31
2017-12-12T03:14:00.365Z,7.30
2017-12-12T03:16:27.928Z,7.32
2017-12-12T03:18:55.445Z,7.39
2017-12-12T03:21:22.964Z,7.37
2017-12-12T03:23:50.459Z,7.35
2017-12-12T03:26:17.958Z,7.40
2017-12-12T03:28:45.530Z,7.44
2017-12-12T03:31:13.038Z,7.46
2017-12-12T03:33:40.549Z,7.45
2017-12-12T03:36:08.173Z,7.47
2017-12-12T03:38:35.759Z,7.50
2017-12-12T03:41:03.273Z,7.49
2017-12-12T03:43:30.953Z,7.51
2017-12-12T03:45:58.465Z,7.58
2017-12-12T03:48:25.970Z,7.60
2017-12-12T03:50:53.468Z,7.67
2017-12-12T03:53:21.000Z,7.63
2017-12-12T03:55:48.593Z,7.66
2017-12-12T03:58:16.143Z,7.70
2017-12-12T04:00:43.992Z,7.65
2017-12-12T04:03:11.494Z,7.68
2017-12-12T04:05:39.001Z,7.64
2017-12-12T04:08:06.505Z,7.64
2017-12-12T04:10:34.028Z,7.61
2017-12-12T04:13:01.530Z,7.59
2017-12-12T04:15:29.032Z,7.59
2017-12-12T04:17:56.576Z,7.59
2017-12-12T04:20:24.126Z,7.61
2017-12-12T04:22:51.762Z,7.55
2017-12-12T04:25:19.257Z,7.55
2017-12-12T04:27:46.763Z,7.55
2017-12-12T04:30:14.262Z,7.59
2017-12-12T04:32:41.760Z,7.60
2017-12-12T04:35:09.273Z,7.62
2017-12-12T04:37:37.015Z,7.63
2017-12-12T04:40:04.606Z,7.70
2017-12-12T04:42:32.229Z,7.66
2017-12-12T04:44:59.879Z,7.63
2017-12-12T04:47:27.417Z,7.64
2017-12-12T04:49:54.988Z,7.69
2017-12-12T04:52:22.499Z,7.60
2017-12-12T04:54:51.106Z,7.63
2017-12-12T04:57:18.601Z,7.59
2017-12-12T04:59:46.110Z,7.58
2017-12-12T05:02:13.608Z,7.60
2017-12-12T05:04:41.119Z,7.68
2017-12-12T05:07:08.612Z,7.69
2017-12-12T05:09:36.121Z,7.66
2017-12-12T05:12:03.747Z,7.68
2017-12-12T05:14:31.387Z,7.69
2017-12-12T05:16:59.086Z,7.72
2017-12-12T05:19:26.753Z,7.69
2017-12-12T05:21:54.249Z,7.72
2017-12-12T05:24:21.746Z,7.74
2017-12-12T05:26:49.257Z,7.82
2017-12-12T05:29:16.767Z,7.84
2017-12-12T05:31:44.265Z,7.84
2017-12-12T05:34:11.782Z,7.84
2017-12-12T05:36:39.275Z,7.86
2017-12-12T05:39:06.902Z,7.83
2017-12-12T05:41:34.485Z,7.86
2017-12-12T05:44:02.082Z,7.87
2017-12-12T05:46:29.588Z,7.87
2017-12-12T05:48:57.093Z,7.85
2017-12-12T05:51:24.596Z,7.92
2017-12-12T05:53:52.088Z,7.88
2017-12-12T05:56:19.587Z,7.91
2017-12-12T05:58:47.085Z,7.94
2017-12-12T06:01:14.575Z,7.90
2017-12-12T06:03:42.077Z,7.92
2017-12-12T06:06:09.577Z,7.93
2017-12-12T06:08:37.091Z,7.94
2017-12-12T06:11:04.598Z,7.93
2017-12-12T06:13:32.123Z,7.91
2017-12-12T06:15:59.633Z,7.93
2017-12-12T06:18:27.141Z,7.94
2017-12-12T06:20:54.653Z,7.94
2017-12-12T06:23:22.220Z,7.97
2017-12-12T06:25:49.797Z,7.97
2017-12-12T06:28:17.421Z,8.00
2017-12-12T06:30:45.020Z,8.00
2017-12-12T06:33:12.661Z,7.98
2017-12-12T06:35:40.231Z,7.92
2017-12-12T06:38:07.849Z,7.93
2017-12-12T06:40:35.362Z,7.93
2017-12-12T06:43:02.868Z,7.92
2017-12-12T06:45:30.365Z,7.94
2017-12-12T06:47:57.987Z,7.95
2017-12-12T06:50:25.506Z,7.98
2017-12-12T06:52:53.011Z,8.00
2017-12-12T06:55:20.508Z,7.96
2017-12-12T06:57:48.017Z,7.95
2017-12-12T07:00:15.537Z,7.95
2017-12-12T07:02:43.029Z,7.94
2017-12-12T07:05:10.540Z,7.93
2017-12-12T07:07:38.043Z,7.95
2017-12-12T07:10:05.563Z,7.94
2017-12-12T07:12:33.054Z,7.92
2017-12-12T07:15:00.569Z,7.92
2017-12-12T07:17:28.180Z,7.91
2017-12-12T07:19:55.676Z,7.86
2017-12-12T07:22:23.175Z,7.88
2017-12-12T07:24:50.682Z,7.82
2017-12-12T07:27:18.188Z,7.83
2017-12-12T07:29:45.713Z,7.84
2017-12-12T07:32:13.221Z,7.83
2017-12-12T07:34:40.773Z,7.85
2017-12-12T07:37:08.353Z,7.82
2017-12-12T07:39:35.910Z,7.79
2017-12-12T07:42:03.413Z,7.81
2017-12-12T07:44:30.908Z,7.78
2017-12-12T07:46:58.410Z,7.77
2017-12-12T07:49:25.915Z,7.75
2017-12-12T07:51:53.425Z,7.76
2017-12-12T07:54:20.916Z,7.73
2017-12-12T07:56:48.425Z,7.72
2017-12-12T07:59:15.923Z,7.72
2017-12-12T08:01:43.443Z,7.73
2017-12-12T08:04:10.938Z,7.73
2017-12-12T08:06:38.439Z,7.71
2017-12-12T08:09:05.940Z,7.69
2017-12-12T08:11:33.526Z,7.66
2017-12-12T08:14:01.108Z,7.70
2017-12-12T08:16:28.774Z,7.70
2017-12-12T08:18:56.322Z,7.65
2017-12-12T08:21:23.835Z,7.58
2017-12-12T08:23:51.431Z,7.24
2017-12-12T08:26:18.937Z,6.96
2017-12-12T08:28:46.512Z,6.71
2017-12-12T08:31:14.013Z,6.52
2017-12-12T08:33:41.514Z,6.48
2017-12-12T08:36:09.004Z,6.39
2017-12-12T08:38:36.571Z,6.29
2017-12-12T08:41:04.299Z,6.17
2017-12-12T08:43:31.907Z,6.10
2017-12-12T08:45:59.546Z,6.05
2017-12-12T08:48:27.102Z,5.98
2017-12-12T08:50:54.752Z,6.00
2017-12-12T08:53:22.403Z,5.81
2017-12-12T08:55:49.957Z,5.73
2017-12-12T08:58:17.465Z,5.76
2017-12-12T09:00:45.120Z,5.72
2017-12-12T09:03:12.617Z,5.61
2017-12-12T09:05:40.117Z,5.59
2017-12-12T09:08:07.633Z,5.51
2017-12-12T09:10:35.145Z,5.40
2017-12-12T09:13:02.641Z,5.44
2017-12-12T09:15:30.144Z,5.22
2017-12-12T09:17:57.682Z,5.28
2017-12-12T09:20:25.179Z,5.23
2017-12-12T09:22:52.689Z,5.14
2017-12-12T09:25:21.105Z,5.17
2017-12-12T09:27:48.733Z,5.24
2017-12-12T09:30:16.237Z,5.15
2017-12-12T09:32:43.737Z,5.17
2017-12-12T09:35:11.236Z,5.18
2017-12-12T09:37:38.751Z,5.13
2017-12-12T09:40:06.248Z,5.09
2017-12-12T09:42:33.762Z,5.04
2017-12-12T09:45:01.272Z,5.04
2017-12-12T09:47:28.768Z,5.03
2017-12-12T09:49:56.264Z,5.09
2017-12-12T09:52:23.773Z,5.08
2017-12-12T09:54:51.297Z,5.07
2017-12-12T09:57:18.800Z,5.05
2017-12-12T09:59:46.319Z,5.03
2017-12-12T10:02:13.816Z,4.91
2017-12-12T10:04:41.317Z,4.90
2017-12-12T10:07:08.821Z,4.99
2017-12-12T10:09:36.364Z,4.80
2017-12-12T10:12:03.871Z,4.78
2017-12-12T10:14:31.375Z,4.86
2017-12-12T10:17:00.096Z,4.73
2017-12-12T10:19:27.582Z,4.90
2017-12-12T10:21:55.109Z,4.80
2017-12-12T10:24:22.637Z,4.81
2017-12-12T10:26:50.136Z,4.77
2017-12-12T10:29:17.653Z,4.73
2017-12-12T10:31:45.156Z,4.69
2017-12-12T10:34:12.666Z,4.79
2017-12-12T10:36:40.172Z,4.65
2017-12-12T10:39:07.681Z,4.83
2017-12-12T10:41:35.180Z,4.76
2017-12-12T10:44:02.681Z,4.81
2017-12-12T10:46:30.197Z,4.93
2017-12-12T10:48:57.712Z,4.87
2017-12-12T10:51:25.222Z,5.00
2017-12-12T10:53:52.728Z,5.00
2017-12-12T10:56:20.246Z,4.98
2017-12-12T10:58:47.754Z,5.00
2017-12-12T11:01:15.276Z,4.94
2017-12-12T11:03:42.789Z,5.04
2017-12-12T11:06:10.289Z,5.07
2017-12-12T11:08:37.793Z,4.91
2017-12-12T11:11:05.285Z,4.73
2017-12-12T11:13:32.793Z,4.88
2017-12-12T11:16:00.302Z,4.75
2017-12-12T11:18:27.814Z,4.81
2017-12-12T11:20:55.316Z,4.88
2017-12-12T11:23:22.829Z,4.74
2017-12-12T11:25:50.343Z,4.76
2017-12-12T11:28:17.843Z,4.73
2017-12-12T11:30:45.343Z,4.78
2017-12-12T11:33:12.855Z,4.76
2017-12-12T11:35:40.363Z,4.79
2017-12-12T11:38:07.872Z,4.79
2017-12-12T11:40:35.368Z,4.79
2017-12-12T11:43:02.864Z,4.78
2017-12-12T11:45:31.304Z,4.83
2017-12-12T11:47:58.802Z,4.88
2017-12-12T11:50:26.297Z,4.80
2017-12-12T11:52:53.803Z,4.86
2017-12-12T11:55:21.308Z,4.90
2017-12-12T11:57:48.814Z,4.98
2017-12-12T12:00:16.336Z,4.91
2017-12-12T12:02:43.842Z,4.95
2017-12-12T12:05:11.345Z,4.93
2017-12-12T12:07:38.869Z,4.96
2017-12-12T12:10:06.385Z,4.98
2017-12-12T12:12:33.902Z,4.86
2017-12-12T12:15:01.392Z,4.87
2017-12-12T12:17:28.920Z,5.00
2017-12-12T12:19:56.443Z,4.99
2017-12-12T12:22:23.962Z,4.99
2017-12-12T12:24:51.457Z,5.13
2017-12-12T12:27:18.956Z,5.13
2017-12-12T12:29:46.501Z,5.20
2017-12-12T12:32:14.022Z,5.19
2017-12-12T12:34:41.535Z,5.05
2017-12-12T12:37:09.040Z,5.05
2017-12-12T12:39:36.539Z,5.11
2017-12-12T12:42:04.056Z,5.09
2017-12-12T12:44:31.564Z,5.11
2017-12-12T12:46:59.073Z,5.18
2017-12-12T12:49:26.575Z,5.13
2017-12-12T12:51:54.090Z,5.17
2017-12-12T12:54:21.623Z,5.17
2017-12-12T12:59:47.256Z,5.41
2017-12-12T13:02:14.757Z,5.52
2017-12-12T13:04:42.261Z,5.33
2017-12-12T13:07:09.783Z,5.34
2017-12-12T13:09:37.284Z,5.33
2017-12-12T13:12:04.776Z,5.27
2017-12-12T13:14:32.286Z,5.23
2017-12-12T13:16:59.795Z,5.27
2017-12-12T13:19:27.324Z,5.32
2017-12-12T13:21:54.830Z,5.19
2017-12-12T13:24:22.368Z,5.23
2017-12-12T13:26:49.879Z,5.28
2017-12-12T13:29:17.386Z,5.19
2017-12-12T13:31:44.887Z,5.15
2017-12-12T13:34:12.413Z,5.14
2017-12-12T13:36:39.914Z,5.08
2017-12-12T13:39:07.415Z,5.06
2017-12-12T13:41:34.917Z,5.11
2017-12-12T13:44:02.413Z,5.05
2017-12-12T13:46:29.910Z,5.09
2017-12-12T13:48:57.406Z,5.12
2017-12-12T13:51:24.901Z,5.12
2017-12-12T13:53:53.202Z,5.09
2017-12-12T13:56:20.701Z,5.12
2017-12-12T13:58:48.205Z,5.08
2017-12-12T14:01:15.701Z,5.09
2017-12-12T14:03:43.203Z,5.11
2017-12-12T14:06:10.705Z,5.06
2017-12-12T14:08:38.201Z,5.04
2017-12-12T14:11:05.870Z,5.05
2017-12-12T14:13:33.400Z,5.07
2017-12-12T14:16:00.912Z,5.07
2017-12-12T14:18:28.419Z,5.05
2017-12-12T14:20:55.931Z,5.00
2017-12-12T14:23:23.432Z,5.01
2017-12-12T14:25:50.932Z,5.04
2017-12-12T14:28:18.428Z,5.09
2017-12-12T14:30:45.942Z,5.02
2017-12-12T14:33:13.437Z,5.01
2017-12-12T14:35:40.946Z,5.02
2017-12-12T14:38:08.469Z,5.06
2017-12-12T14:40:35.994Z,4.97
2017-12-12T14:43:03.509Z,5.01
2017-12-12T14:45:31.013Z,4.95
2017-12-12T14:47:58.528Z,4.98
2017-12-12T14:50:26.029Z,4.98
2017-12-12T14:52:53.527Z,4.95
2017-12-12T14:55:21.039Z,4.95
2017-12-12T14:57:48.545Z,4.94
2017-12-12T15:00:16.057Z,4.88
2017-12-12T15:02:43.559Z,4.94
2017-12-12T15:05:11.070Z,4.86
2017-12-12T15:07:38.579Z,4.85
2017-12-12T15:10:06.102Z,4.87
2017-12-12T15:12:33.608Z,4.81
2017-12-12T15:15:01.153Z,4.75
2017-12-12T15:17:28.681Z,4.76
2017-12-12T15:19:56.210Z,4.87
2017-12-12T15:22:23.720Z,4.75
2017-12-12T15:24:51.332Z,4.71
2017-12-12T15:27:18.838Z,4.78
2017-12-12T15:29:46.344Z,4.64
2017-12-12T15:32:13.860Z,4.53
2017-12-12T15:34:41.650Z,4.54
2017-12-12T15:37:09.151Z,4.42
2017-12-12T15:39:36.640Z,4.38
2017-12-12T15:42:04.149Z,4.33
2017-12-12T15:44:31.649Z,4.32
2017-12-12T15:46:59.144Z,4.32
2017-12-12T15:49:26.646Z,4.22
2017-12-12T15:51:54.142Z,4.22
2017-12-12T15:54:21.657Z,4.30
2017-12-12T15:56:49.189Z,4.24
2017-12-12T15:59:16.694Z,4.12
2017-12-12T16:01:44.201Z,4.15
2017-12-12T16:04:11.711Z,4.20
2017-12-12T16:06:39.229Z,4.14
2017-12-12T16:09:06.730Z,4.16
2017-12-12T16:11:34.237Z,4.11
2017-12-12T16:14:01.742Z,4.17
2017-12-12T16:16:29.250Z,4.17
2017-12-12T16:18:56.758Z,4.06
2017-12-12T16:21:24.270Z,4.17
2017-12-12T16:23:51.777Z,4.10
2017-12-12T16:26:19.287Z,4.11
2017-12-12T16:28:46.794Z,4.11
2017-12-12T16:31:14.302Z,4.15
2017-12-12T16:33:41.805Z,4.15
2017-12-12T16:36:09.318Z,4.03
2017-12-12T16:38:36.830Z,4.01
2017-12-12T16:41:04.353Z,3.96
2017-12-12T16:43:31.861Z,4.04
2017-12-12T16:45:59.373Z,3.98
2017-12-12T16:48:26.897Z,3.89
2017-12-12T16:50:54.438Z,3.92
2017-12-12T16:53:21.944Z,3.92
2017-12-12T16:55:49.446Z,3.88
2017-12-12T16:58:16.972Z,3.93
2017-12-12T17:00:44.493Z,3.89
2017-12-12T17:03:12.001Z,3.85
2017-12-12T17:05:39.518Z,3.82
2017-12-12T17:08:07.027Z,3.78
2017-12-12T17:10:34.529Z,3.80
2017-12-12T17:13:02.043Z,3.86
2017-12-12T17:15:29.595Z,3.77
2017-12-12T17:17:57.117Z,3.80
2017-12-12T17:20:24.616Z,3.73
2017-12-12T17:22:52.129Z,3.81
2017-12-12T17:25:20.885Z,3.65
2017-12-12T17:27:48.398Z,3.67
2017-12-12T17:30:15.909Z,3.67
2017-12-12T17:32:43.408Z,3.70
2017-12-12T17:35:10.905Z,3.68
2017-12-12T17:37:38.404Z,3.64
2017-12-12T17:40:05.916Z,3.58
2017-12-12T17:42:33.420Z,3.56
2017-12-12T17:45:00.958Z,3.43
2017-12-12T17:47:28.474Z,3.36
2017-12-12T17:49:55.977Z,3.44
2017-12-12T17:52:23.485Z,3.36
2017-12-12T17:54:50.991Z,3.37
2017-12-12T17:57:18.487Z,3.33
2017-12-12T17:59:46.003Z,3.27
2017-12-12T18:02:13.504Z,3.22
2017-12-12T18:04:41.005Z,3.21
2017-12-12T18:07:08.514Z,3.29
2017-12-12T18:09:36.026Z,3.22
2017-12-12T18:12:03.545Z,3.15
2017-12-12T18:14:31.052Z,3.11
2017-12-12T18:16:58.615Z,3.17
2017-12-12T18:19:26.133Z,3.15
2017-12-12T18:21:53.652Z,3.04
2017-12-12T18:24:21.161Z,3.02
2017-12-12T18:26:48.677Z,3.01
2017-12-12T18:29:16.193Z,3.01
2017-12-12T18:31:43.700Z,2.99
2017-12-12T18:34:11.226Z,2.98
2017-12-12T18:36:38.738Z,3.04
2017-12-12T18:39:06.247Z,3.01
2017-12-12T18:41:33.764Z,2.92
2017-12-12T18:44:01.276Z,3.06
2017-12-12T18:46:28.801Z,2.99
2017-12-12T18:48:56.309Z,2.90
2017-12-12T18:51:23.834Z,2.98
2017-12-12T18:53:51.362Z,2.97
2017-12-12T18:56:18.873Z,3.03
2017-12-12T18:58:46.393Z,2.96
2017-12-12T19:01:13.911Z,2.94
2017-12-12T19:03:41.430Z,2.94
2017-12-12T19:06:08.957Z,2.98
2017-12-12T19:08:36.470Z,2.95
2017-12-12T19:11:03.997Z,2.88
2017-12-12T19:13:31.512Z,2.92
2017-12-12T19:15:59.024Z,2.77
2017-12-12T19:18:26.531Z,2.82
2017-12-12T19:20:54.068Z,2.75
2017-12-12T19:23:21.604Z,2.72
2017-12-12T19:25:49.119Z,2.69
2017-12-12T19:28:16.628Z,2.66
2017-12-12T19:30:44.136Z,2.56
2017-12-12T19:33:11.682Z,2.54
2017-12-12T19:35:39.188Z,2.55
2017-12-12T19:38:06.695Z,2.53
2017-12-12T19:40:34.223Z,2.52
2017-12-12T19:43:01.728Z,2.47
2017-12-12T19:45:29.245Z,2.47
2017-12-12T21:09:53.731Z,2.74
2017-12-12T21:12:21.264Z,2.74
2017-12-12T21:14:48.791Z,2.75
2017-12-12T21:17:16.301Z,2.84
2017-12-12T21:19:43.815Z,2.80
2017-12-12T21:22:11.327Z,2.82
2017-12-12T21:24:38.828Z,2.78
2017-12-12T21:27:06.338Z,2.86
2017-12-12T21:29:33.851Z,2.85
2017-12-12T21:32:01.357Z,2.87
2017-12-12T21:34:28.882Z,2.87
2017-12-12T21:36:56.384Z,2.90
2017-12-12T21:39:23.885Z,2.93
2017-12-12T21:41:51.388Z,2.95
2017-12-12T21:44:18.905Z,2.98
2017-12-12T21:46:46.438Z,3.00
2017-12-12T21:49:13.949Z,3.00
2017-12-12T21:51:41.460Z,3.00
2017-12-12T21:54:09.020Z,3.10
2017-12-12T21:56:36.541Z,3.04
2017-12-12T21:59:04.072Z,3.08
2017-12-12T22:01:31.595Z,3.11
2017-12-12T22:03:59.112Z,3.12
2017-12-12T22:06:26.626Z,3.14
2017-12-12T22:08:54.140Z,3.13
2017-12-12T22:11:21.659Z,3.18
2017-12-12T22:13:49.155Z,3.21
2017-12-12T22:16:16.699Z,3.20
2017-12-12T22:18:44.235Z,3.18
2017-12-12T22:21:11.754Z,3.24
2017-12-12T22:23:39.319Z,3.28
2017-12-12T22:26:06.814Z,3.26
2017-12-12T22:28:34.323Z,3.32
2017-12-12T22:31:01.834Z,3.34
2017-12-12T22:33:29.345Z,3.37
2017-12-12T22:35:56.869Z,3.37
2017-12-12T22:38:24.375Z,3.34
2017-12-12T22:40:51.879Z,3.37
2017-12-12T22:43:19.380Z,3.39
2017-12-12T22:45:46.958Z,3.38
2017-12-12T22:48:14.460Z,3.45
2017-12-12T22:50:41.983Z,3.44
2017-12-12T22:53:09.483Z,3.34
2017-12-12T22:55:36.986Z,3.42
2017-12-12T22:58:04.517Z,3.46
2017-12-12T23:00:32.029Z,3.51
2017-12-12T23:02:59.558Z,3.52
2017-12-12T23:05:27.368Z,3.53
2017-12-12T23:07:54.921Z,3.51
2017-12-12T23:10:22.451Z,3.53
2017-12-12T23:12:49.957Z,3.56
2017-12-12T23:15:17.460Z,3.54
2017-12-12T23:17:44.967Z,3.56
2017-12-12T23:20:12.478Z,3.61
2017-12-12T23:22:39.977Z,3.60
2017-12-12T23:25:07.485Z,3.64
2017-12-12T23:27:35.022Z,3.62
2017-12-12T23:30:02.543Z,3.60
2017-12-12T23:32:30.067Z,3.64
2017-12-12T23:34:57.587Z,3.66
2017-12-12T23:37:25.385Z,3.64
2017-12-12T23:39:52.998Z,3.67
2017-12-12T23:42:20.512Z,3.67
2017-12-12T23:44:48.019Z,3.66
2017-12-12T23:47:15.528Z,3.72
2017-12-12T23:49:43.042Z,3.58
2017-12-12T23:52:10.548Z,3.68
2017-12-12T23:54:38.058Z,3.61
2017-12-12T23:57:05.568Z,3.63
2017-12-12T23:59:33.069Z,3.65
